Meteorological Aerodrome Report (METAR)

METAR

Data at: 0040 UTC 07 May 2021

METAR for:NVSC (Sola/Vanua Lava Arpt, TO, NV)
Text:NVSC 070000Z AUTO 03004KT //// // NCD 31/27 Q1012
Temperature: 31.0°C ( 88°F)
Dewpoint: 27.0°C ( 81°F) [RH = 79%]
Pressure (altimeter):29.88 inches Hg (1012.0 mb)
Winds:from the NNE (30 degrees) at 5 MPH (4 knots; 2.1 m/s)
Ceiling:at least 12,000 feet AGL
Clouds:sky clear below 12,000 feet AGL

METAR

Data at: 0040 UTC 07 May 2021

METAR for:NVSG (Longana Arpt, PA, NV)
Text:NVSG 070000Z 09008KT 9999 BKN020 30/29 Q1012
Temperature: 30.0°C ( 86°F)
Dewpoint: 29.0°C ( 84°F) [RH = 94%]
Pressure (altimeter):29.88 inches Hg (1012.0 mb)
Winds:from the E (90 degrees) at 9 MPH (8 knots; 4.1 m/s)
Visibility:6 or more sm (10+ km)
Ceiling:2000 feet AGL
Clouds: broken clouds at 2000 feet AGL

METAR

Data at: 0040 UTC 07 May 2021

METAR for:NVSS (Santo/Pekoa Intl, SA, NV)
Text:NVSS 070000Z 13009KT 9999 BKN020 30/26 Q1012
Temperature: 30.0°C ( 86°F)
Dewpoint: 26.0°C ( 79°F) [RH = 79%]
Pressure (altimeter):29.88 inches Hg (1012.0 mb)
Winds:from the SE (130 degrees) at 10 MPH (9 knots; 4.6 m/s)
Visibility:6 or more sm (10+ km)
Ceiling:2000 feet AGL
Clouds: broken clouds at 2000 feet AGL

METAR

Data at: 0040 UTC 07 May 2021

METAR for:NVSL (Malekula Isl/Lamap, MA, NV)
Text:No data found

METAR

Data at: 0040 UTC 07 May 2021

METAR for:NVSP (Norsup Arpt, MA, NV)
Text:No data found

METAR

Data at: 0040 UTC 07 May 2021

METAR for:NVVV (Efate/Bauerfield Int, SE, NV)
Text:NVVV 070000Z 12012KT 9999 BKN020 29/24 Q1013
Temperature: 29.0°C ( 84°F)
Dewpoint: 24.0°C ( 75°F) [RH = 74%]
Pressure (altimeter):29.91 inches Hg (1013.0 mb)
Winds:from the ESE (120 degrees) at 14 MPH (12 knots; 6.2 m/s)
Visibility:6 or more sm (10+ km)
Ceiling:2000 feet AGL
Clouds: broken clouds at 2000 feet AGL

METAR

Data at: 0040 UTC 07 May 2021

METAR for:NVVW (Tanna Arpt, TA, NV)
Text:NVVW 070000Z 16007KT 9999 BKN025 30/24 Q1013
Temperature: 30.0°C ( 86°F)
Dewpoint: 24.0°C ( 75°F) [RH = 70%]
Pressure (altimeter):29.91 inches Hg (1013.0 mb)
Winds:from the SSE (160 degrees) at 8 MPH (7 knots; 3.6 m/s)
Visibility:6 or more sm (10+ km)
Ceiling:2500 feet AGL
Clouds: broken clouds at 2500 feet AGL

METAR

Data at: 0040 UTC 07 May 2021

METAR for:NVVA (Aneityum/Mystery Isl, TA, NV)
Text:NVVA 070000Z 13004KT 9999 FEW018 SCT025 BKN300 29/23 Q1014
Temperature: 29.0°C ( 84°F)
Dewpoint: 23.0°C ( 73°F) [RH = 70%]
Pressure (altimeter):29.94 inches Hg (1014.0 mb)
Winds:from the SE (130 degrees) at 5 MPH (4 knots; 2.1 m/s)
Visibility:6 or more sm (10+ km)
Ceiling:30000 feet AGL
Clouds: few clouds at 1800 feet AGL, scattered clouds at 2500 feet AGL, broken clouds at 30000 feet AGL

METAR

Data at: 0040 UTC 07 May 2021

NVVV 070000Z 12012KT 9999 BKN020 29/24 Q1013
NVSC 070000Z AUTO 03004KT //// // NCD 31/27 Q1012
NVSG 070000Z 09008KT 9999 BKN020 30/29 Q1012
NVSS 070000Z 13009KT 9999 BKN020 30/26 Q1012
No Data available for NVSL
No Data available for NVSP
NVVW 070000Z 16007KT 9999 BKN025 30/24 Q1013
NVVA 070000Z 13004KT 9999 FEW018 SCT025 BKN300 29/23 Q1014